sensor_id;sensor_type;location;lat;lon;timestamp;pressure;altitude;pressure_sealevel;temperature;humidity
49102;BME280;34913;47.520;19.186;2023-05-29T00:01:34;99849.78;;;14.68;69.51
49102;BME280;34913;47.520;19.186;2023-05-29T00:04:01;99852.38;;;14.60;69.99
49102;BME280;34913;47.520;19.186;2023-05-29T00:06:27;99846.53;;;14.57;70.35
49102;BME280;34913;47.520;19.186;2023-05-29T00:08:52;99852.03;;;14.55;70.22
49102;BME280;34913;47.520;19.186;2023-05-29T00:11:17;99854.31;;;14.50;70.41
49102;BME280;34913;47.520;19.186;2023-05-29T00:13:43;99846.22;;;14.42;70.87
49102;BME280;34913;47.520;19.186;2023-05-29T00:16:08;99843.16;;;14.37;71.29
49102;BME280;34913;47.520;19.186;2023-05-29T00:18:35;99842.09;;;14.30;71.86
49102;BME280;34913;47.520;19.186;2023-05-29T00:21:00;99844.25;;;14.26;72.16
49102;BME280;34913;47.520;19.186;2023-05-29T00:23:26;99857.09;;;14.22;72.35
49102;BME280;34913;47.520;19.186;2023-05-29T00:25:52;99848.69;;;14.17;73.04
49102;BME280;34913;47.520;19.186;2023-05-29T00:28:17;99851.34;;;14.17;73.11
49102;BME280;34913;47.520;19.186;2023-05-29T00:30:42;99848.13;;;14.14;72.80
49102;BME280;34913;47.520;19.186;2023-05-29T00:33:08;99859.81;;;14.13;73.24
49102;BME280;34913;47.520;19.186;2023-05-29T00:35:33;99848.06;;;14.06;73.11
49102;BME280;34913;47.520;19.186;2023-05-29T00:37:59;99851.06;;;14.03;73.46
49102;BME280;34913;47.520;19.186;2023-05-29T00:40:25;99852.13;;;14.10;73.34
49102;BME280;34913;47.520;19.186;2023-05-29T00:42:50;99854.41;;;14.05;73.39
49102;BME280;34913;47.520;19.186;2023-05-29T00:45:16;99850.38;;;14.01;73.43
49102;BME280;34913;47.520;19.186;2023-05-29T00:47:41;99853.03;;;14.01;73.51
49102;BME280;34913;47.520;19.186;2023-05-29T00:50:09;99848.97;;;13.96;73.68
49102;BME280;34913;47.520;19.186;2023-05-29T00:52:37;99847.97;;;13.97;73.25
49102;BME280;34913;47.520;19.186;2023-05-29T00:55:03;99855.03;;;13.99;73.12
49102;BME280;34913;47.520;19.186;2023-05-29T00:57:30;99848.97;;;13.96;73.11
49102;BME280;34913;47.520;19.186;2023-05-29T00:59:57;99847.91;;;13.89;73.29
49102;BME280;34913;47.520;19.186;2023-05-29T01:02:23;99845.16;;;13.81;73.33
49102;BME280;34913;47.520;19.186;2023-05-29T01:04:49;99841.13;;;13.77;73.69
49102;BME280;34913;47.520;19.186;2023-05-29T01:07:15;99844.41;;;13.71;73.40
49102;BME280;34913;47.520;19.186;2023-05-29T01:09:41;99845.53;;;13.68;73.35
49102;BME280;34913;47.520;19.186;2023-05-29T01:15:27;99845.97;;;13.64;73.47
49102;BME280;34913;47.520;19.186;2023-05-29T01:18:08;99833.47;;;13.64;72.92
49102;BME280;34913;47.520;19.186;2023-05-29T01:20:44;99838.66;;;13.66;73.15
49102;BME280;34913;47.520;19.186;2023-05-29T01:23:23;99841.19;;;13.67;72.98
49102;BME280;34913;47.520;19.186;2023-05-29T01:28:41;99838.81;;;13.64;72.96
49102;BME280;34913;47.520;19.186;2023-05-29T01:31:09;99828.63;;;13.60;73.64
49102;BME280;34913;47.520;19.186;2023-05-29T01:33:38;99828.91;;;13.57;74.02
49102;BME280;34913;47.520;19.186;2023-05-29T01:36:08;99830.72;;;13.56;74.02
49102;BME280;34913;47.520;19.186;2023-05-29T01:38:34;99831.50;;;13.66;74.21
49102;BME280;34913;47.520;19.186;2023-05-29T01:41:01;99828.97;;;13.65;74.33
49102;BME280;34913;47.520;19.186;2023-05-29T01:43:27;99828.47;;;13.61;74.62
49102;BME280;34913;47.520;19.186;2023-05-29T01:45:53;99827.63;;;13.61;74.42
49102;BME280;34913;47.520;19.186;2023-05-29T01:48:18;99823.88;;;13.54;74.90
49102;BME280;34913;47.520;19.186;2023-05-29T01:50:45;99828.53;;;13.52;75.03
49102;BME280;34913;47.520;19.186;2023-05-29T01:53:12;99825.63;;;13.45;75.63
49102;BME280;34913;47.520;19.186;2023-05-29T01:55:38;99831.38;;;13.40;75.58
49102;BME280;34913;47.520;19.186;2023-05-29T01:58:04;99827.47;;;13.35;75.63
49102;BME280;34913;47.520;19.186;2023-05-29T02:00:30;99826.09;;;13.31;76.06
49102;BME280;34913;47.520;19.186;2023-05-29T02:02:56;99812.25;;;13.27;76.74
49102;BME280;34913;47.520;19.186;2023-05-29T02:05:22;99826.94;;;13.31;77.36
49102;BME280;34913;47.520;19.186;2023-05-29T02:07:47;99814.47;;;13.32;78.37
49102;BME280;34913;47.520;19.186;2023-05-29T02:10:13;99812.25;;;13.27;78.70
49102;BME280;34913;47.520;19.186;2023-05-29T02:12:38;99813.94;;;13.28;79.85
49102;BME280;34913;47.520;19.186;2023-05-29T02:15:04;99808.34;;;13.22;80.67
49102;BME280;34913;47.520;19.186;2023-05-29T02:17:29;99802.56;;;13.17;80.53
49102;BME280;34913;47.520;19.186;2023-05-29T02:19:56;99808.38;;;13.12;80.12
49102;BME280;34913;47.520;19.186;2023-05-29T02:22:21;99803.03;;;13.12;80.39
49102;BME280;34913;47.520;19.186;2023-05-29T02:24:47;99795.63;;;13.06;80.75
49102;BME280;34913;47.520;19.186;2023-05-29T02:27:12;99797.31;;;13.07;81.37
49102;BME280;34913;47.520;19.186;2023-05-29T02:29:37;99798.44;;;13.04;81.20
49102;BME280;34913;47.520;19.186;2023-05-29T02:32:04;99807.13;;;13.06;80.81
49102;BME280;34913;47.520;19.186;2023-05-29T02:34:30;99806.13;;;13.07;80.67
49102;BME280;34913;47.520;19.186;2023-05-29T02:36:55;99809.94;;;13.05;80.37
49102;BME280;34913;47.520;19.186;2023-05-29T02:39:21;99798.56;;;13.03;81.10
49102;BME280;34913;47.520;19.186;2023-05-29T02:41:47;99797.03;;;13.00;80.78
49102;BME280;34913;47.520;19.186;2023-05-29T02:44:12;99792.03;;;12.97;81.15
49102;BME280;34913;47.520;19.186;2023-05-29T02:46:38;99793.69;;;12.98;81.59
49102;BME280;34913;47.520;19.186;2023-05-29T02:49:03;99787.81;;;12.95;81.30
49102;BME280;34913;47.520;19.186;2023-05-29T02:51:29;99788.78;;;12.94;80.32
49102;BME280;34913;47.520;19.186;2023-05-29T02:53:55;99791.31;;;12.95;79.98
49102;BME280;34913;47.520;19.186;2023-05-29T02:56:20;99791.47;;;12.94;79.43
49102;BME280;34913;47.520;19.186;2023-05-29T02:58:52;99780.13;;;12.92;79.04
49102;BME280;34913;47.520;19.186;2023-05-29T03:01:17;99796.53;;;12.97;79.33
49102;BME280;34913;47.520;19.186;2023-05-29T03:03:43;99790.34;;;12.96;79.24
49102;BME280;34913;47.520;19.186;2023-05-29T03:06:08;99795.22;;;13.01;78.82
49102;BME280;34913;47.520;19.186;2023-05-29T03:08:35;99797.31;;;13.07;78.90
49102;BME280;34913;47.520;19.186;2023-05-29T03:11:07;99792.59;;;13.19;77.92
49102;BME280;34913;47.520;19.186;2023-05-29T03:13:36;99795.25;;;13.19;78.36
49102;BME280;34913;47.520;19.186;2023-05-29T03:16:02;99793.22;;;13.12;78.09
49102;BME280;34913;47.520;19.186;2023-05-29T03:18:27;99801.34;;;13.21;78.00
49102;BME280;34913;47.520;19.186;2023-05-29T03:20:53;99792.91;;;13.16;78.05
49102;BME280;34913;47.520;19.186;2023-05-29T03:23:19;99798.81;;;13.09;78.24
49102;BME280;34913;47.520;19.186;2023-05-29T03:25:44;99800.13;;;13.05;79.10
49102;BME280;34913;47.520;19.186;2023-05-29T03:28:10;99799.13;;;13.06;78.79
49102;BME280;34913;47.520;19.186;2023-05-29T03:30:35;99802.63;;;13.07;78.76
49102;BME280;34913;47.520;19.186;2023-05-29T03:33:01;99802.63;;;13.07;79.04
49102;BME280;34913;47.520;19.186;2023-05-29T03:35:29;99810.63;;;13.07;79.62
49102;BME280;34913;47.520;19.186;2023-05-29T03:37:55;99817.78;;;13.06;78.86
49102;BME280;34913;47.520;19.186;2023-05-29T03:40:20;99817.31;;;13.11;79.62
49102;BME280;34913;47.520;19.186;2023-05-29T03:42:46;99819.88;;;13.12;79.45
49102;BME280;34913;47.520;19.186;2023-05-29T03:45:11;99822.53;;;13.12;79.11
49102;BME280;34913;47.520;19.186;2023-05-29T03:47:37;99824.06;;;13.15;79.47
49102;BME280;34913;47.520;19.186;2023-05-29T03:50:02;99821.91;;;13.19;78.79
49102;BME280;34913;47.520;19.186;2023-05-29T03:52:28;99827.69;;;13.24;78.46
49102;BME280;34913;47.520;19.186;2023-05-29T03:54:53;99830.75;;;13.29;78.90
49102;BME280;34913;47.520;19.186;2023-05-29T03:57:18;99834.19;;;13.39;78.78
49102;BME280;34913;47.520;19.186;2023-05-29T03:59:44;99827.63;;;13.61;77.82
49102;BME280;34913;47.520;19.186;2023-05-29T04:02:09;99827.31;;;13.82;77.20
49102;BME280;34913;47.520;19.186;2023-05-29T04:04:35;99830.31;;;13.96;76.31
49102;BME280;34913;47.520;19.186;2023-05-29T04:07:00;99829.56;;;14.22;75.55
49102;BME280;34913;47.520;19.186;2023-05-29T04:09:26;99830.44;;;14.48;74.94
49102;BME280;34913;47.520;19.186;2023-05-29T04:11:51;99832.13;;;14.75;73.65
49102;BME280;34913;47.520;19.186;2023-05-29T04:14:17;99836.88;;;14.90;72.56
49102;BME280;34913;47.520;19.186;2023-05-29T04:16:43;99837.00;;;15.14;72.30
49102;BME280;34913;47.520;19.186;2023-05-29T04:19:08;99833.97;;;15.43;70.40
49102;BME280;34913;47.520;19.186;2023-05-29T04:21:34;99835.75;;;15.69;68.52
49102;BME280;34913;47.520;19.186;2023-05-29T04:24:00;99844.47;;;15.95;67.73
49102;BME280;34913;47.520;19.186;2023-05-29T04:26:25;99843.84;;;16.17;66.99
49102;BME280;34913;47.520;19.186;2023-05-29T04:28:54;99841.03;;;16.43;65.58
49102;BME280;34913;47.520;19.186;2023-05-29T04:31:26;99844.34;;;16.62;65.34
49102;BME280;34913;47.520;19.186;2023-05-29T04:33:52;99832.97;;;16.84;64.81
49102;BME280;34913;47.520;19.186;2023-05-29T04:36:23;99844.13;;;17.04;64.15
49102;BME280;34913;47.520;19.186;2023-05-29T04:38:51;99838.38;;;17.23;63.03
49102;BME280;34913;47.520;19.186;2023-05-29T04:41:16;99838.78;;;17.43;62.04
49102;BME280;34913;47.520;19.186;2023-05-29T04:43:42;99840.88;;;17.64;61.84
49102;BME280;34913;47.520;19.186;2023-05-29T04:46:07;99841.16;;;18.00;61.07
49102;BME280;34913;47.520;19.186;2023-05-29T04:48:38;99846.78;;;18.13;61.24
49102;BME280;34913;47.520;19.186;2023-05-29T04:51:08;99839.56;;;18.37;60.21
49102;BME280;34913;47.520;19.186;2023-05-29T04:53:37;99849.03;;;18.71;58.75
49102;BME280;34913;47.520;19.186;2023-05-29T04:56:03;99846.31;;;18.71;59.02
49102;BME280;34913;47.520;19.186;2023-05-29T04:58:28;99843.13;;;18.90;58.09
49102;BME280;34913;47.520;19.186;2023-05-29T05:00:54;99850.63;;;19.09;57.95
49102;BME280;34913;47.520;19.186;2023-05-29T05:03:23;99846.09;;;19.24;56.69
49102;BME280;34913;47.520;19.186;2023-05-29T05:05:49;99849.88;;;19.45;56.57
49102;BME280;34913;47.520;19.186;2023-05-29T05:08:15;99853.94;;;19.56;57.03
49102;BME280;34913;47.520;19.186;2023-05-29T05:10:41;99852.75;;;19.58;57.06
49102;BME280;34913;47.520;19.186;2023-05-29T05:13:06;99849.13;;;19.51;55.98
49102;BME280;34913;47.520;19.186;2023-05-29T05:15:32;99851.16;;;19.78;57.47
49102;BME280;34913;47.520;19.186;2023-05-29T05:17:58;99852.97;;;20.14;55.25
49102;BME280;34913;47.520;19.186;2023-05-29T05:20:23;99852.06;;;20.28;54.85
49102;BME280;34913;47.520;19.186;2023-05-29T05:22:48;99847.84;;;20.62;54.53
49102;BME280;34913;47.520;19.186;2023-05-29T05:25:14;99852.78;;;20.58;54.46
49102;BME280;34913;47.520;19.186;2023-05-29T05:27:39;99850.16;;;20.65;54.12
49102;BME280;34913;47.520;19.186;2023-05-29T05:30:06;99850.88;;;20.80;54.90
49102;BME280;34913;47.520;19.186;2023-05-29T05:32:32;99853.72;;;20.72;54.33
49102;BME280;34913;47.520;19.186;2023-05-29T05:34:57;99852.97;;;20.78;54.78
49102;BME280;34913;47.520;19.186;2023-05-29T05:37:23;99850.34;;;20.91;53.71
49102;BME280;34913;47.520;19.186;2023-05-29T05:39:49;99851.09;;;21.13;53.24
49102;BME280;34913;47.520;19.186;2023-05-29T05:42:15;99849.38;;;21.34;52.54
49102;BME280;34913;47.520;19.186;2023-05-29T05:44:41;99858.50;;;21.33;52.24
49102;BME280;34913;47.520;19.186;2023-05-29T05:47:07;99845.53;;;21.50;50.47
49102;BME280;34913;47.520;19.186;2023-05-29T05:49:33;99857.56;;;21.54;50.63
49102;BME280;34913;47.520;19.186;2023-05-29T05:51:58;99860.78;;;21.77;52.04
49102;BME280;34913;47.520;19.186;2023-05-29T05:54:24;99856.81;;;21.80;50.80
49102;BME280;34913;47.520;19.186;2023-05-29T05:56:49;99860.22;;;21.88;51.38
49102;BME280;34913;47.520;19.186;2023-05-29T05:59:15;99863.75;;;21.89;50.40
49102;BME280;34913;47.520;19.186;2023-05-29T06:01:40;99862.50;;;21.98;49.98
49102;BME280;34913;47.520;19.186;2023-05-29T06:04:06;99870.72;;;22.31;50.52
49102;BME280;34913;47.520;19.186;2023-05-29T06:06:32;99864.47;;;22.31;48.75
49102;BME280;34913;47.520;19.186;2023-05-29T06:08:57;99870.28;;;22.21;50.70
49102;BME280;34913;47.520;19.186;2023-05-29T06:11:24;99864.50;;;22.44;50.40
49102;BME280;34913;47.520;19.186;2023-05-29T06:13:50;99871.34;;;22.46;50.16
49102;BME280;34913;47.520;19.186;2023-05-29T06:16:16;99871.34;;;22.66;49.50
49102;BME280;34913;47.520;19.186;2023-05-29T06:18:42;99874.88;;;22.73;48.91
49102;BME280;34913;47.520;19.186;2023-05-29T06:21:07;99881.56;;;22.97;49.08
49102;BME280;34913;47.520;19.186;2023-05-29T06:23:34;99872.84;;;22.89;49.17
49102;BME280;34913;47.520;19.186;2023-05-29T06:26:02;99876.72;;;23.32;47.53
49102;BME280;34913;47.520;19.186;2023-05-29T06:28:28;99880.63;;;23.63;47.18
49102;BME280;34913;47.520;19.186;2023-05-29T06:30:53;99883.13;;;23.45;48.29
49102;BME280;34913;47.520;19.186;2023-05-29T06:33:19;99883.31;;;23.56;47.57
49102;BME280;34913;47.520;19.186;2023-05-29T06:35:46;99892.59;;;23.87;47.40
49102;BME280;34913;47.520;19.186;2023-05-29T06:38:13;99892.75;;;23.99;47.16
49102;BME280;34913;47.520;19.186;2023-05-29T06:40:38;99887.75;;;23.95;46.47
49102;BME280;34913;47.520;19.186;2023-05-29T06:43:04;99891.88;;;24.05;45.97
49102;BME280;34913;47.520;19.186;2023-05-29T06:45:29;99896.53;;;23.91;46.29
49102;BME280;34913;47.520;19.186;2023-05-29T06:47:55;99886.22;;;23.61;46.76
49102;BME280;34913;47.520;19.186;2023-05-29T06:50:20;99897.19;;;23.86;48.13
49102;BME280;34913;47.520;19.186;2023-05-29T06:52:46;99888.72;;;24.08;45.36
49102;BME280;34913;47.520;19.186;2023-05-29T06:55:11;99886.94;;;24.33;46.68
49102;BME280;34913;47.520;19.186;2023-05-29T06:57:37;99894.41;;;24.38;45.89
49102;BME280;34913;47.520;19.186;2023-05-29T07:00:06;99882.75;;;24.37;46.12
49102;BME280;34913;47.520;19.186;2023-05-29T07:02:32;99893.22;;;24.27;46.85
49102;BME280;34913;47.520;19.186;2023-05-29T07:04:58;99883.38;;;24.33;46.06
49102;BME280;34913;47.520;19.186;2023-05-29T07:07:23;99894.03;;;24.28;47.10
49102;BME280;34913;47.520;19.186;2023-05-29T07:09:49;99890.06;;;24.62;45.20
49102;BME280;34913;47.520;19.186;2023-05-29T07:12:14;99895.06;;;24.90;44.36
49102;BME280;34913;47.520;19.186;2023-05-29T07:14:40;99892.41;;;25.08;44.92
49102;BME280;34913;47.520;19.186;2023-05-29T07:17:05;99895.06;;;25.15;43.85
49102;BME280;34913;47.520;19.186;2023-05-29T07:19:31;99890.41;;;25.58;42.80
49102;BME280;34913;47.520;19.186;2023-05-29T07:21:59;99899.47;;;25.89;42.01
49102;BME280;34913;47.520;19.186;2023-05-29T07:24:24;99898.50;;;25.83;42.09
49102;BME280;34913;47.520;19.186;2023-05-29T07:26:50;99903.78;;;25.78;41.70
49102;BME280;34913;47.520;19.186;2023-05-29T07:29:16;99910.94;;;25.54;41.55
49102;BME280;34913;47.520;19.186;2023-05-29T07:31:43;99907.84;;;25.69;41.89
49102;BME280;34913;47.520;19.186;2023-05-29T07:34:09;99907.69;;;25.64;42.18
49102;BME280;34913;47.520;19.186;2023-05-29T07:36:35;99907.81;;;25.76;42.32
49102;BME280;34913;47.520;19.186;2023-05-29T07:39:01;99920.75;;;25.55;42.46
49102;BME280;34913;47.520;19.186;2023-05-29T07:41:27;99917.31;;;25.85;41.23
49102;BME280;34913;47.520;19.186;2023-05-29T07:43:53;99923.94;;;26.07;42.44
49102;BME280;34913;47.520;19.186;2023-05-29T07:46:19;99929.53;;;25.94;42.37
49102;BME280;34913;47.520;19.186;2023-05-29T07:48:44;99937.09;;;25.74;42.50
49102;BME280;34913;47.520;19.186;2023-05-29T07:51:11;99929.16;;;25.54;41.87
49102;BME280;34913;47.520;19.186;2023-05-29T07:53:37;99933.16;;;25.88;43.10
49102;BME280;34913;47.520;19.186;2023-05-29T07:56:03;99935.25;;;26.34;41.63
49102;BME280;34913;47.520;19.186;2023-05-29T07:58:28;99934.78;;;26.56;40.45
49102;BME280;34913;47.520;19.186;2023-05-29T08:00:54;99938.75;;;26.41;42.36
49102;BME280;34913;47.520;19.186;2023-05-29T08:03:19;99927.00;;;26.71;41.34
49102;BME280;34913;47.520;19.186;2023-05-29T08:05:45;99925.22;;;26.65;41.06
49102;BME280;34913;47.520;19.186;2023-05-29T08:08:11;99929.28;;;26.97;41.53
49102;BME280;34913;47.520;19.186;2023-05-29T08:10:40;99931.22;;;27.20;39.60
49102;BME280;34913;47.520;19.186;2023-05-29T08:13:06;99920.19;;;27.39;39.54
49102;BME280;34913;47.520;19.186;2023-05-29T08:15:31;99919.22;;;26.98;40.62
49102;BME280;34913;47.520;19.186;2023-05-29T08:17:57;99915.38;;;26.34;40.31
49102;BME280;34913;47.520;19.186;2023-05-29T08:20:22;99918.44;;;26.56;39.87
49102;BME280;34913;47.520;19.186;2023-05-29T08:22:48;99917.03;;;26.65;40.16
49102;BME280;34913;47.520;19.186;2023-05-29T08:25:13;99922.00;;;26.68;41.15
49102;BME280;34913;47.520;19.186;2023-05-29T08:27:39;99926.22;;;26.94;39.84
49102;BME280;34913;47.520;19.186;2023-05-29T08:30:05;99928.13;;;27.05;39.05
49102;BME280;34913;47.520;19.186;2023-05-29T08:32:30;99926.97;;;27.13;39.60
49102;BME280;34913;47.520;19.186;2023-05-29T08:34:56;99923.03;;;27.32;39.26
49102;BME280;34913;47.520;19.186;2023-05-29T08:37:21;99920.31;;;27.20;41.09
49102;BME280;34913;47.520;19.186;2023-05-29T08:39:47;99921.97;;;27.45;38.29
49102;BME280;34913;47.520;19.186;2023-05-29T08:42:14;99925.38;;;27.52;39.00
49102;BME280;34913;47.520;19.186;2023-05-29T08:44:46;99918.28;;;27.39;39.35
49102;BME280;34913;47.520;19.186;2023-05-29T08:47:14;99924.44;;;27.58;38.54
49102;BME280;34913;47.520;19.186;2023-05-29T08:49:47;99917.81;;;27.42;37.90
49102;BME280;34913;47.520;19.186;2023-05-29T08:52:16;99917.00;;;27.18;37.13
49102;BME280;34913;47.520;19.186;2023-05-29T08:54:43;99917.81;;;27.42;38.64
49102;BME280;34913;47.520;19.186;2023-05-29T08:57:10;99920.28;;;27.55;38.28
49102;BME280;34913;47.520;19.186;2023-05-29T08:59:37;99921.03;;;27.27;39.07
49102;BME280;34913;47.520;19.186;2023-05-29T09:02:04;99919.09;;;27.51;37.99
49102;BME280;34913;47.520;19.186;2023-05-29T09:04:31;99913.41;;;27.53;39.88
49102;BME280;34913;47.520;19.186;2023-05-29T09:06:57;99917.41;;;27.62;38.17
49102;BME280;34913;47.520;19.186;2023-05-29T09:09:25;99907.91;;;27.65;39.15
49102;BME280;34913;47.520;19.186;2023-05-29T09:11:52;99922.28;;;27.48;38.51
49102;BME280;34913;47.520;19.186;2023-05-29T09:14:35;99923.28;;;27.31;38.84
49102;BME280;34913;47.520;19.186;2023-05-29T09:17:02;99927.13;;;26.99;40.31
49102;BME280;34913;47.520;19.186;2023-05-29T09:19:29;99926.72;;;26.49;41.33
49102;BME280;34913;47.520;19.186;2023-05-29T09:22:07;99921.41;;;25.32;42.93
49102;BME280;34913;47.520;19.186;2023-05-29T09:24:34;99924.19;;;25.08;43.42
49102;BME280;34913;47.520;19.186;2023-05-29T09:27:02;99930.63;;;25.31;43.61
49102;BME280;34913;47.520;19.186;2023-05-29T09:29:33;99927.44;;;25.34;42.88
49102;BME280;34913;47.520;19.186;2023-05-29T09:31:59;99923.06;;;25.33;42.55
49102;BME280;34913;47.520;19.186;2023-05-29T09:34:26;99934.59;;;24.79;43.56
49102;BME280;34913;47.520;19.186;2023-05-29T09:36:53;99930.47;;;24.76;44.29
49102;BME280;34913;47.520;19.186;2023-05-29T09:39:18;99926.00;;;24.89;45.12
49102;BME280;34913;47.520;19.186;2023-05-29T09:41:44;99926.63;;;24.84;42.86
49102;BME280;34913;47.520;19.186;2023-05-29T09:44:16;99927.78;;;24.70;44.17
49102;BME280;34913;47.520;19.186;2023-05-29T09:46:42;99933.63;;;24.73;44.43
49102;BME280;34913;47.520;19.186;2023-05-29T09:49:14;99936.72;;;24.77;43.51
49102;BME280;34913;47.520;19.186;2023-05-29T09:51:40;99936.19;;;24.62;43.52
49102;BME280;34913;47.520;19.186;2023-05-29T09:54:17;99925.84;;;24.52;45.21
49102;BME280;34913;47.520;19.186;2023-05-29T09:56:43;99931.09;;;24.47;46.51
49102;BME280;34913;47.520;19.186;2023-05-29T09:59:14;99938.09;;;24.16;45.97
49102;BME280;34913;47.520;19.186;2023-05-29T10:01:43;99928.03;;;24.30;48.14
49102;BME280;34913;47.520;19.186;2023-05-29T10:04:10;99932.97;;;24.46;46.85
49102;BME280;34913;47.520;19.186;2023-05-29T10:06:37;99937.44;;;24.34;46.97
49102;BME280;34913;47.520;19.186;2023-05-29T10:09:05;99937.72;;;24.13;47.76
49102;BME280;34913;47.520;19.186;2023-05-29T10:11:35;99929.25;;;23.96;48.67
49102;BME280;34913;47.520;19.186;2023-05-29T10:14:03;99936.94;;;23.99;48.13
49102;BME280;34913;47.520;19.186;2023-05-29T10:16:32;99937.03;;;23.86;48.39
49102;BME280;34913;47.520;19.186;2023-05-29T10:19:01;99941.78;;;23.90;48.37
49102;BME280;34913;47.520;19.186;2023-05-29T10:21:32;99942.66;;;24.29;47.33
49102;BME280;34913;47.520;19.186;2023-05-29T10:23:58;99935.94;;;24.32;48.11
49102;BME280;34913;47.520;19.186;2023-05-29T10:26:25;99936.50;;;24.47;48.03
49102;BME280;34913;47.520;19.186;2023-05-29T10:31:43;99936.88;;;25.14;45.77
49102;BME280;34913;47.520;19.186;2023-05-29T10:36:56;99936.47;;;24.54;46.02
49102;BME280;34913;47.520;19.186;2023-05-29T10:39:26;99931.56;;;24.37;46.72
49102;BME280;34913;47.520;19.186;2023-05-29T10:41:52;99927.22;;;24.23;48.02
49102;BME280;34913;47.520;19.186;2023-05-29T10:49:25;99920.75;;;23.86;49.14
49102;BME280;34913;47.520;19.186;2023-05-29T10:51:51;99922.47;;;23.74;48.67
49102;BME280;34913;47.520;19.186;2023-05-29T10:54:21;99919.56;;;23.62;48.57
49102;BME280;34913;47.520;19.186;2023-05-29T10:56:57;99917.50;;;23.51;49.57
49102;BME280;34913;47.520;19.186;2023-05-29T10:59:23;99921.09;;;23.31;49.56
49102;BME280;34913;47.520;19.186;2023-05-29T11:01:53;99926.31;;;23.20;50.63
49102;BME280;34913;47.520;19.186;2023-05-29T11:06:48;99919.84;;;22.81;50.96
49102;BME280;34913;47.520;19.186;2023-05-29T11:09:32;99915.88;;;22.50;52.07
49102;BME280;34913;47.520;19.186;2023-05-29T11:12:26;99915.28;;;22.62;52.95
49102;BME280;34913;47.520;19.186;2023-05-29T11:15:09;99912.38;;;22.76;53.29
49102;BME280;34913;47.520;19.186;2023-05-29T11:20:06;99914.69;;;22.93;54.11
49102;BME280;34913;47.520;19.186;2023-05-29T11:25:16;99906.34;;;23.07;52.01
49102;BME280;34913;47.520;19.186;2023-05-29T11:27:44;99909.47;;;23.11;52.43
49102;BME280;34913;47.520;19.186;2023-05-29T11:30:11;99912.59;;;23.15;51.24
49102;BME280;34913;47.520;19.186;2023-05-29T11:32:39;99908.63;;;23.10;50.62
49102;BME280;34913;47.520;19.186;2023-05-29T11:35:07;99906.13;;;23.02;50.72
49102;BME280;34913;47.520;19.186;2023-05-29T11:37:35;99912.81;;;23.00;50.28
49102;BME280;34913;47.520;19.186;2023-05-29T11:40:06;99903.66;;;22.94;51.58
49102;BME280;34913;47.520;19.186;2023-05-29T11:42:33;99900.13;;;22.94;52.07
49102;BME280;34913;47.520;19.186;2023-05-29T11:45:15;99898.84;;;23.03;53.48
49102;BME280;34913;47.520;19.186;2023-05-29T11:47:59;99886.75;;;23.12;51.64
49102;BME280;34913;47.520;19.186;2023-05-29T11:50:27;99891.31;;;23.25;52.62
49102;BME280;34913;47.520;19.186;2023-05-29T11:52:54;99889.00;;;23.28;50.32
49102;BME280;34913;47.520;19.186;2023-05-29T11:55:22;99878.81;;;23.30;51.11
49102;BME280;34913;47.520;19.186;2023-05-29T11:57:49;99878.59;;;23.38;51.40
49102;BME280;34913;47.520;19.186;2023-05-29T12:00:15;99875.00;;;23.45;49.86
49102;BME280;34913;47.520;19.186;2023-05-29T12:02:44;99869.16;;;23.54;49.65
49102;BME280;34913;47.520;19.186;2023-05-29T12:05:13;99859.03;;;23.88;50.82
49102;BME280;34913;47.520;19.186;2023-05-29T12:07:52;99855.47;;;24.26;48.46
49102;BME280;34913;47.520;19.186;2023-05-29T12:10:21;99851.25;;;24.61;47.62
49102;BME280;34913;47.520;19.186;2023-05-29T12:12:51;99847.16;;;24.52;47.06
49102;BME280;34913;47.520;19.186;2023-05-29T12:15:17;99848.75;;;24.85;48.79
49102;BME280;34913;47.520;19.186;2023-05-29T12:17:44;99837.28;;;25.08;46.31
49102;BME280;34913;47.520;19.186;2023-05-29T12:20:11;99837.13;;;25.39;46.32
49102;BME280;34913;47.520;19.186;2023-05-29T12:22:38;99834.16;;;25.41;45.44
49102;BME280;34913;47.520;19.186;2023-05-29T12:25:09;99831.88;;;25.74;45.63
49102;BME280;34913;47.520;19.186;2023-05-29T12:27:34;99834.09;;;25.84;44.50
49102;BME280;34913;47.520;19.186;2023-05-29T12:30:10;99834.59;;;25.93;44.05
49102;BME280;34913;47.520;19.186;2023-05-29T12:32:39;99823.44;;;25.64;43.88
49102;BME280;34913;47.520;19.186;2023-05-29T12:35:18;99822.75;;;25.99;44.34
49102;BME280;34913;47.520;19.186;2023-05-29T12:37:45;99819.06;;;26.23;43.70
49102;BME280;34913;47.520;19.186;2023-05-29T12:40:19;99825.91;;;26.56;43.81
49102;BME280;34913;47.520;19.186;2023-05-29T12:42:54;99815.81;;;26.68;42.12
49102;BME280;34913;47.520;19.186;2023-05-29T12:45:23;99821.72;;;26.53;41.13
49102;BME280;34913;47.520;19.186;2023-05-29T12:47:56;99823.09;;;26.32;42.17
49102;BME280;34913;47.520;19.186;2023-05-29T12:50:33;99822.50;;;26.30;40.91
49102;BME280;34913;47.520;19.186;2023-05-29T12:55:32;99821.59;;;26.06;39.43
49102;BME280;34913;47.520;19.186;2023-05-29T12:58:11;99829.69;;;25.65;39.37
49102;BME280;34913;47.520;19.186;2023-05-29T13:00:38;99818.63;;;25.48;39.54
49102;BME280;34913;47.520;19.186;2023-05-29T13:03:05;99806.97;;;25.59;41.00
49102;BME280;34913;47.520;19.186;2023-05-29T13:05:31;99813.78;;;25.68;41.65
49102;BME280;34913;47.520;19.186;2023-05-29T13:07:57;99813.59;;;25.81;41.87
49102;BME280;34913;47.520;19.186;2023-05-29T13:10:24;99813.50;;;25.88;39.86
49102;BME280;34913;47.520;19.186;2023-05-29T13:12:50;99819.09;;;25.93;40.56
49102;BME280;34913;47.520;19.186;2023-05-29T13:15:19;99816.22;;;25.88;41.46
49102;BME280;34913;47.520;19.186;2023-05-29T13:17:44;99820.63;;;25.71;39.73